Time;durP1;ratioP1;P1;durP2;ratioP2;P2;SDS_P1;SDS_P2;PMS_P1;PMS_P2;Temp;Humidity;BMP_temperature;BMP_pressure;BME280_temperature;BME280_humidity;BME280_pressure;Samples;Min_cycle;Max_cycle;Signal;HPM_P1;HPM_P2
2021/01/05 00:01:45;;;;;;;53.17;29.45;;;;;;;1.25;90.10;96136.30;1792806;80;21527;-88
2021/01/05 00:04:13;;;;;;;49.42;27.82;;;;;;;1.26;90.09;96133.97;1792926;80;21179;-88
2021/01/05 00:06:40;;;;;;;51.58;30.00;;;;;;;1.28;90.04;96131.43;1792873;80;21147;-88
2021/01/05 00:09:07;;;;;;;50.20;25.48;;;;;;;1.25;89.96;96134.48;1792700;80;21139;-88
2021/01/05 00:11:35;;;;;;;54.40;29.50;;;;;;;1.20;89.95;96134.39;1792743;80;21155;-89
2021/01/05 00:14:02;;;;;;;47.53;27.37;;;;;;;1.15;89.95;96127.25;1792581;80;21103;-88
2021/01/05 00:16:31;;;;;;;50.23;28.17;;;;;;;1.18;89.99;96129.40;1792090;80;21289;-88
2021/01/05 00:18:58;;;;;;;43.28;22.75;;;;;;;1.18;89.97;96129.40;1791740;80;21164;-88
2021/01/05 00:21:25;;;;;;;47.00;27.30;;;;;;;1.19;90.04;96127.58;1792185;80;21269;-88
2021/01/05 00:23:53;;;;;;;45.75;26.73;;;;;;;1.16;90.03;96125.44;1792102;80;21281;-88
2021/01/05 00:26:21;;;;;;;40.23;23.25;;;;;;;1.11;90.18;96120.88;1792051;80;21293;-88
2021/01/05 00:28:49;;;;;;;43.73;25.12;;;;;;;1.07;90.54;96115.85;1792305;80;21650;-88
2021/01/05 00:31:16;;;;;;;39.00;23.00;;;;;;;1.02;90.64;96124.89;1792038;80;21614;-88
2021/01/05 00:33:44;;;;;;;35.23;23.20;;;;;;;1.00;90.79;96118.32;1792152;80;21273;-88
2021/01/05 00:36:11;;;;;;;40.08;22.93;;;;;;;0.97;91.01;96118.24;1792319;80;21130;-88
2021/01/05 00:38:38;;;;;;;39.00;24.23;;;;;;;0.97;90.93;96118.24;1792172;80;21147;-88
2021/01/05 00:41:06;;;;;;;38.85;23.67;;;;;;;0.97;91.03;96116.15;1792075;80;21281;-88
2021/01/05 00:43:33;;;;;;;34.88;20.92;;;;;;;0.99;90.98;96110.21;1792133;80;21135;-88
2021/01/05 00:46:01;;;;;;;35.13;21.00;;;;;;;0.99;91.13;96101.88;1792185;80;21131;-88
2021/01/05 00:48:28;;;;;;;33.78;21.60;;;;;;;0.97;91.29;96105.19;1792184;80;21139;-88
2021/01/05 00:50:55;;;;;;;32.60;19.82;;;;;;;0.97;91.37;96108.31;1791689;80;21148;-88
2021/01/05 00:53:22;;;;;;;28.50;18.95;;;;;;;0.98;91.27;96106.78;1792376;80;21270;-88
2021/01/05 00:55:49;;;;;;;29.95;18.15;;;;;;;1.02;91.21;96108.44;1792098;80;21664;-88
2021/01/05 00:58:17;;;;;;;48.33;27.67;;;;;;;1.05;91.36;96109.28;1792103;80;21290;-88
2021/01/05 01:00:44;;;;;;;41.08;25.02;;;;;;;1.02;91.26;96113.15;1792064;80;21131;-88
2021/01/05 01:03:12;;;;;;;58.15;30.50;;;;;;;1.00;91.31;96104.76;1792128;80;21270;-88
2021/01/05 01:05:39;;;;;;;54.23;28.38;;;;;;;1.00;91.45;96107.38;1792057;80;21139;-88
2021/01/05 01:08:06;;;;;;;58.02;32.55;;;;;;;1.00;91.29;96113.89;1792135;80;21653;-88
2021/01/05 01:10:33;;;;;;;59.08;32.67;;;;;;;1.02;91.31;96115.76;1792035;80;21136;-88
2021/01/05 01:13:01;;;;;;;56.48;32.03;;;;;;;1.07;91.21;96113.75;1792108;80;21135;-88
2021/01/05 01:15:28;;;;;;;52.10;30.62;;;;;;;1.10;91.18;96110.67;1791985;80;21285;-88
2021/01/05 01:17:55;;;;;;;48.80;30.05;;;;;;;1.15;91.10;96110.80;1792159;80;21104;-88
2021/01/05 01:20:22;;;;;;;45.30;25.77;;;;;;;1.21;91.05;96111.69;1791860;80;21285;-88
2021/01/05 01:22:49;;;;;;;47.85;27.85;;;;;;;1.23;90.92;96105.71;1792346;80;21301;-88
2021/01/05 01:25:19;;;;;;;38.67;26.17;;;;;;;1.14;90.67;96102.17;1792014;80;21107;-88
2021/01/05 01:27:46;;;;;;;26.77;17.65;;;;;;;1.07;90.56;96092.36;1792714;80;21166;-88
2021/01/05 01:30:16;;;;;;;43.30;26.82;;;;;;;1.04;90.54;96090.22;1792247;80;21500;-88
2021/01/05 01:32:43;;;;;;;45.67;28.77;;;;;;;1.03;90.50;96090.45;1792639;80;21611;-88
2021/01/05 01:35:12;;;;;;;39.65;23.00;;;;;;;1.06;90.56;96085.55;1792268;80;21186;-88
2021/01/05 01:37:39;;;;;;;39.23;22.67;;;;;;;1.11;90.56;96081.73;1792220;80;21155;-88
2021/01/05 01:40:10;;;;;;;29.27;19.35;;;;;;;1.14;90.48;96084.41;1792194;80;21281;-88
2021/01/05 01:42:38;;;;;;;28.70;18.55;;;;;;;1.16;90.45;96075.32;1792367;80;21266;-88
2021/01/05 01:45:08;;;;;;;30.43;18.27;;;;;;;1.14;90.30;96076.58;1792380;80;21523;-88
2021/01/05 01:47:38;;;;;;;31.50;19.25;;;;;;;1.09;90.25;96067.33;1792490;80;21293;-88
2021/01/05 01:50:11;;;;;;;27.62;18.45;;;;;;;1.06;90.20;96066.49;1763420;80;21201;-88
2021/01/05 01:53:04;;;;;;;32.48;20.80;;;;;;;1.03;90.18;96065.14;1792338;80;21266;-88
2021/01/05 01:56:27;;;;;;;37.45;23.35;;;;;;;1.06;90.22;96065.98;1792253;80;21282;-88
2021/01/05 01:59:15;;;;;;;34.92;21.02;;;;;;;1.08;90.18;96060.01;1792223;80;21311;-88
2021/01/05 02:02:01;;;;;;;29.30;19.70;;;;;;;1.11;90.07;96058.23;1792209;80;21274;-89
2021/01/05 02:04:49;;;;;;;26.50;18.87;;;;;;;1.11;90.00;96052.22;1792395;80;21250;-89
2021/01/05 02:07:37;;;;;;;31.80;19.70;;;;;;;1.07;89.91;96054.52;1792218;80;21128;-87
2021/01/05 02:10:32;;;;;;;28.98;19.98;;;;;;;1.03;89.89;96050.00;1791993;80;21615;-88
2021/01/05 02:13:20;;;;;;;27.80;18.65;;;;;;;1.05;89.96;96046.64;1792256;80;21140;-88
2021/01/05 02:16:25;;;;;;;28.77;19.60;;;;;;;1.09;89.99;96052.97;1792118;80;21152;-88
2021/01/05 02:19:15;;;;;;;29.02;18.23;;;;;;;1.13;89.97;96039.76;1792094;80;21120;-88
2021/01/05 02:22:01;;;;;;;;;;;;;;;1.11;89.83;96041.78;1754047;81;21288;-89
2021/01/05 02:25:22;;;;;;;27.07;17.90;;;;;;;1.12;89.84;96035.02;1788165;80;20413;-89
2021/01/05 02:28:03;;;;;;;23.52;15.45;;;;;;;1.13;89.84;96033.23;1788128;80;21538;-88
2021/01/05 02:30:35;;;;;;;17.55;11.20;;;;;;;1.12;89.77;96032.41;1788027;80;21638;-89
2021/01/05 02:33:52;;;;;;;23.27;15.88;;;;;;;1.16;89.81;96028.84;1731684;82;21123;-89
2021/01/05 02:36:33;;;;;;;18.70;13.60;;;;;;;1.13;89.72;96024.09;1787956;80;21269;-89
2021/01/05 02:39:23;;;;;;;21.42;13.83;;;;;;;1.18;89.73;96024.18;1787834;80;21640;-89
2021/01/05 02:42:20;;;;;;;18.27;12.18;;;;;;;1.21;89.72;96019.80;1765241;80;21130;-89
2021/01/05 02:45:01;;;;;;;18.98;12.23;;;;;;;1.25;89.71;96020.11;1788034;80;21120;-88
2021/01/05 02:48:12;;;;;;;14.28;9.68;;;;;;;1.20;89.57;96012.98;1788004;80;21629;-88
2021/01/05 02:51:12;;;;;;;13.62;9.68;;;;;;;1.14;89.47;96012.11;1788186;80;21558;-88
2021/01/05 02:53:51;;;;;;;14.30;9.63;;;;;;;1.12;89.45;96003.70;1795550;80;21269;-89
2021/01/05 02:57:01;;;;;;;12.58;8.80;;;;;;;1.10;89.44;95994.01;1795223;80;21289;-89
2021/01/05 03:00:05;;;;;;;12.75;8.25;;;;;;;1.14;89.51;95987.31;1788452;80;21111;-89
2021/01/05 03:02:49;;;;;;;11.50;7.35;;;;;;;1.18;89.57;95983.20;1771121;81;21099;-88
2021/01/05 03:05:16;;;;;;;13.65;8.65;;;;;;;1.11;89.48;95982.53;1770849;81;21127;-89
2021/01/05 03:07:45;;;;;;;15.43;8.33;;;;;;;1.01;89.38;95984.98;1771569;81;21535;-88
2021/01/05 03:10:42;;;;;;;10.15;7.03;;;;;;;1.03;89.45;95979.52;1745483;81;21119;-88
2021/01/05 03:13:30;;;;;;;10.88;6.03;;;;;;;1.05;89.51;95977.47;1764799;81;21175;-88
2021/01/05 03:16:11;;;;;;;8.60;6.25;;;;;;;1.04;89.53;95980.59;1770642;81;21142;-89
2021/01/05 03:18:56;;;;;;;10.68;6.35;;;;;;;1.00;89.45;95976.87;1774993;81;21662;-88
2021/01/05 03:21:39;;;;;;;8.83;5.87;;;;;;;0.95;89.46;95971.55;1739707;82;21139;-88
2021/01/05 03:24:09;;;;;;;9.20;5.55;;;;;;;0.89;89.52;95964.66;1739542;82;21130;-88
2021/01/05 03:26:44;;;;;;;7.50;5.50;;;;;;;0.87;89.62;95957.58;1767881;81;21149;-88
2021/01/05 03:29:15;;;;;;;7.92;5.97;;;;;;;0.84;89.64;95952.29;1758396;82;21160;-88
2021/01/05 03:31:51;;;;;;;8.53;5.70;;;;;;;0.81;89.67;95948.84;1764577;81;21479;-88
2021/01/05 03:34:19;;;;;;;9.55;6.25;;;;;;;0.84;89.78;95955.41;1764578;81;21539;-88
2021/01/05 03:36:48;;;;;;;7.53;4.40;;;;;;;0.92;89.85;95947.22;1764403;81;21120;-88
2021/01/05 03:39:15;;;;;;;6.42;4.92;;;;;;;0.94;89.86;95946.47;1764556;81;21508;-88
2021/01/05 03:41:42;;;;;;;6.10;4.22;;;;;;;0.95;89.85;95942.05;1764685;81;21308;-88
2021/01/05 03:44:10;;;;;;;5.97;3.90;;;;;;;0.95;89.94;95949.36;1764564;81;21293;-88
2021/01/05 03:46:37;;;;;;;7.10;3.90;;;;;;;0.96;89.95;95942.32;1764420;81;21178;-88
2021/01/05 03:49:04;;;;;;;6.53;3.77;;;;;;;0.98;90.00;95935.84;1766695;80;21503;-88
2021/01/05 03:51:32;;;;;;;4.58;3.02;;;;;;;1.01;90.01;95931.99;1795773;80;21487;-88
2021/01/05 03:53:58;;;;;;;5.72;3.70;;;;;;;0.99;90.07;95932.75;1795858;80;21531;-88
2021/01/05 03:56:26;;;;;;;6.60;3.85;;;;;;;0.95;90.17;95933.70;1795674;80;21131;-88
2021/01/05 03:58:53;;;;;;;6.20;3.45;;;;;;;0.96;90.14;95926.66;1795770;80;21147;-88
2021/01/05 04:01:20;;;;;;;6.67;3.70;;;;;;;0.98;90.18;95924.09;1795803;80;21498;-88
2021/01/05 04:03:47;;;;;;;3.67;3.12;;;;;;;0.97;90.27;95915.98;1795718;80;21150;-88
2021/01/05 04:06:14;;;;;;;5.40;3.40;;;;;;;0.93;90.23;95925.84;1795705;80;21135;-88
2021/01/05 04:08:41;;;;;;;6.55;3.37;;;;;;;0.86;90.26;95916.86;1795765;80;21520;-88
2021/01/05 04:11:08;;;;;;;6.33;3.33;;;;;;;0.85;90.27;95913.97;1795959;80;21183;-88
2021/01/05 04:13:35;;;;;;;6.55;3.25;;;;;;;0.88;90.29;95918.72;1795805;80;21108;-89
2021/01/05 04:16:02;;;;;;;6.47;3.62;;;;;;;0.88;90.39;95922.12;1795413;80;21128;-89
2021/01/05 04:18:29;;;;;;;4.87;2.77;;;;;;;0.84;90.37;95918.37;1795202;80;21305;-89
2021/01/05 04:20:56;;;;;;;6.90;3.65;;;;;;;0.86;90.46;95916.86;1794917;80;21295;-88
2021/01/05 04:23:23;;;;;;;6.00;3.58;;;;;;;0.88;90.48;95920.02;1795236;80;21131;-88
2021/01/05 04:25:50;;;;;;;3.77;2.55;;;;;;;0.90;90.41;95919.27;1795440;80;21135;-88
2021/01/05 04:28:17;;;;;;;4.47;3.10;;;;;;;0.94;90.42;95919.08;1795134;80;21147;-88
2021/01/05 04:30:44;;;;;;;7.17;3.33;;;;;;;0.95;90.35;95910.73;1795130;80;21167;-88
2021/01/05 04:33:14;;;;;;;5.65;3.30;;;;;;;0.95;90.43;95920.66;1795160;80;21262;-88
2021/01/05 04:35:41;;;;;;;6.20;2.87;;;;;;;0.91;90.39;95913.02;1795230;80;21166;-88
2021/01/05 04:38:09;;;;;;;7.15;3.60;;;;;;;0.86;90.37;95909.03;1795114;80;21154;-88
2021/01/05 04:40:42;;;;;;;6.28;3.47;;;;;;;0.86;90.38;95915.55;1795492;80;21139;-88
2021/01/05 04:43:38;;;;;;;4.72;3.00;;;;;;;0.85;90.37;95916.58;1795225;80;21653;-88
2021/01/05 04:46:20;;;;;;;6.33;3.50;;;;;;;0.84;90.40;95913.66;1795260;80;21613;-89
2021/01/05 04:49:04;;;;;;;5.40;3.40;;;;;;;0.83;90.47;95916.78;1795118;80;21357;-89
2021/01/05 04:51:59;;;;;;;6.20;3.33;;;;;;;0.79;90.53;95917.49;1794969;80;21278;-89
2021/01/05 04:54:50;;;;;;;6.67;3.65;;;;;;;0.75;90.75;95916.39;1795303;80;21487;-89
2021/01/05 04:57:24;;;;;;;6.72;3.40;;;;;;;0.71;90.71;95909.55;1795147;80;21088;-89
2021/01/05 04:59:59;;;;;;;6.55;3.35;;;;;;;0.76;90.76;95910.14;1795132;80;21496;-88
2021/01/05 05:02:37;;;;;;;7.70;3.50;;;;;;;0.78;90.74;95903.66;1795329;80;21269;-88
2021/01/05 05:05:30;;;;;;;6.75;3.47;;;;;;;0.79;90.72;95910.45;1795165;80;21265;-88
2021/01/05 05:08:20;;;;;;;5.33;2.62;;;;;;;0.82;90.69;95910.50;1795205;80;21463;-88
2021/01/05 05:11:03;;;;;;;;;;;;;;;0.84;90.72;95902.72;1797218;80;21151;-88
2021/01/05 05:13:56;;;;;;;5.87;3.00;;;;;;;0.83;90.65;95904.25;1794836;80;21064;-88
2021/01/05 05:16:49;;;;;;;5.78;3.30;;;;;;;0.81;90.63;95897.97;1795507;80;21174;-89
2021/01/05 05:19:48;;;;;;;5.97;3.33;;;;;;;0.82;90.66;95896.15;1795673;80;21514;-89
2021/01/05 05:22:45;;;;;;;5.70;3.20;;;;;;;0.83;90.65;95898.52;1795900;80;21131;-88
2021/01/05 05:25:20;;;;;;;6.45;2.92;;;;;;;0.85;90.82;95900.41;1795805;80;21155;-89
2021/01/05 05:28:08;;;;;;;4.22;3.02;;;;;;;0.82;90.71;95905.28;1795189;80;21184;-89
2021/01/05 05:30:41;;;;;;;3.52;2.45;;;;;;;0.86;90.72;95903.30;1795105;80;21188;-89
2021/01/05 05:33:37;;;;;;;5.42;3.08;;;;;;;0.89;90.77;95898.12;1795786;80;21127;-89
2021/01/05 05:36:18;;;;;;;4.60;2.83;;;;;;;0.89;90.74;95903.34;1795722;80;21111;-89
2021/01/05 05:39:12;;;;;;;8.25;4.30;;;;;;;0.90;90.77;95904.92;1795745;80;21503;-88
2021/01/05 05:42:08;;;;;;;5.53;2.92;;;;;;;0.91;90.70;95897.37;1795749;80;21495;-88
2021/01/05 05:47:50;;;;;;;6.08;3.17;;;;;;;0.92;90.69;95897.64;1878453;76;22900;-88
2021/01/05 05:50:23;;;;;;;10.30;3.90;;;;;;;0.89;90.69;95896.81;1852497;77;21281;-88
2021/01/05 05:53:04;;;;;;;5.85;3.42;;;;;;;0.91;90.68;95894.76;1801772;80;21135;-88
2021/01/05 05:55:57;;;;;;;6.00;2.90;;;;;;;0.88;90.63;95896.54;1793170;80;21123;-88
2021/01/05 05:58:35;;;;;;;7.72;3.58;;;;;;;0.88;90.65;95890.02;1793192;79;21112;-88
2021/01/05 06:01:07;;;;;;;5.87;3.25;;;;;;;0.87;90.71;95889.22;1792640;80;21104;-89
2021/01/05 06:03:34;;;;;;;6.17;3.27;;;;;;;0.86;90.72;95889.46;1793137;80;21123;-89
2021/01/05 06:06:01;;;;;;;5.67;3.35;;;;;;;0.78;90.87;95889.31;1793326;80;21179;-89
2021/01/05 06:08:28;;;;;;;6.97;3.30;;;;;;;0.75;90.89;95887.17;1792996;80;21176;-89
2021/01/05 06:10:56;;;;;;;8.38;3.92;;;;;;;0.72;90.86;95879.03;1793105;80;21163;-89
2021/01/05 06:13:23;;;;;;;8.43;3.75;;;;;;;0.73;90.90;95877.49;1793022;80;21159;-89
2021/01/05 06:15:50;;;;;;;7.28;3.80;;;;;;;0.70;90.94;95874.53;1793041;79;21154;-88
2021/01/05 06:18:18;;;;;;;5.65;3.47;;;;;;;0.72;91.01;95877.73;1793039;79;21139;-89
2021/01/05 06:20:46;;;;;;;8.48;4.10;;;;;;;0.73;90.96;95874.09;1792709;80;21104;-89
2021/01/05 06:23:14;;;;;;;4.90;3.02;;;;;;;0.74;90.99;95873.06;1793238;79;21139;-89
2021/01/05 06:25:41;;;;;;;4.87;2.87;;;;;;;0.77;91.03;95873.89;1793015;79;21148;-89
2021/01/05 06:28:08;;;;;;;5.60;3.17;;;;;;;0.78;91.01;95872.36;1792979;80;21155;-89
2021/01/05 06:30:35;;;;;;;5.67;3.17;;;;;;;0.79;91.00;95861.41;1793194;79;21115;-89
2021/01/05 06:33:02;;;;;;;5.22;3.55;;;;;;;0.79;90.98;95867.93;1793193;79;21107;-89
2021/01/05 06:35:28;;;;;;;8.20;4.15;;;;;;;0.79;90.98;95871.33;1793000;79;21123;-89
2021/01/05 06:37:56;;;;;;;10.70;4.53;;;;;;;0.79;90.99;95867.93;1793260;79;21155;-88
2021/01/05 06:40:27;;;;;;;19.80;6.72;;;;;;;0.82;91.00;95870.06;1793052;80;21155;-89
2021/01/05 06:42:57;;;;;;;21.35;8.55;;;;;;;0.82;90.97;95859.11;1793284;80;21495;-89
2021/01/05 06:45:31;;;;;;;17.85;7.58;;;;;;;0.82;90.93;95866.14;1793072;80;21151;-89
2021/01/05 06:48:00;;;;;;;13.32;5.33;;;;;;;0.80;90.92;95858.56;1793065;80;21131;-88
2021/01/05 06:50:30;;;;;;;8.88;4.45;;;;;;;0.82;90.99;95860.41;1792728;80;21143;-89
2021/01/05 06:52:57;;;;;;;53.33;16.37;;;;;;;0.80;90.90;95862.98;1793217;79;21135;-89
2021/01/05 06:55:26;;;;;;;44.50;15.72;;;;;;;0.80;90.91;95862.47;1793020;79;21471;-89
2021/01/05 06:57:53;;;;;;;32.05;11.57;;;;;;;0.81;90.94;95856.22;1792802;79;21483;-89
2021/01/05 07:00:25;;;;;;;35.45;13.15;;;;;;;0.78;90.97;95858.01;1792472;80;21158;-89
2021/01/05 07:02:52;;;;;;;8.93;5.12;;;;;;;0.79;91.04;95851.77;1792478;79;21448;-89
2021/01/05 07:05:20;;;;;;;10.78;4.50;;;;;;;0.78;91.04;95850.69;1792318;80;21138;-89
2021/01/05 07:07:48;;;;;;;5.25;3.42;;;;;;;0.78;91.22;95854.61;1792687;80;21155;-89
2021/01/05 07:10:20;;;;;;;10.28;4.87;;;;;;;0.77;91.20;95853.03;1792495;80;21168;-89
2021/01/05 07:12:48;;;;;;;14.28;5.65;;;;;;;0.81;91.20;95856.74;1792495;79;21120;-89
2021/01/05 07:15:18;;;;;;;9.00;4.55;;;;;;;0.83;91.21;95860.69;1792506;79;21128;-89
2021/01/05 07:17:47;;;;;;;8.03;4.53;;;;;;;0.84;91.22;95855.75;1792636;80;21487;-89
2021/01/05 07:20:17;;;;;;;21.70;8.75;;;;;;;0.84;91.20;95857.05;1792340;80;21132;-89
2021/01/05 07:22:44;;;;;;;12.28;5.47;;;;;;;0.84;91.15;95854.95;1792830;80;21522;-89
2021/01/05 07:25:15;;;;;;;12.15;6.03;;;;;;;0.86;91.19;95853.72;1792308;79;21147;-88
2021/01/05 07:27:43;;;;;;;8.60;4.03;;;;;;;0.85;91.16;95847.44;1792584;79;21124;-89
2021/01/05 07:30:12;;;;;;;6.53;3.52;;;;;;;0.84;91.15;95849.74;1792507;79;21285;-88
2021/01/05 07:32:40;;;;;;;8.13;3.90;;;;;;;0.81;91.18;95848.91;1792511;79;21309;-89
2021/01/05 07:35:10;;;;;;;6.37;3.62;;;;;;;0.80;91.36;95844.72;1763839;80;21170;-89
2021/01/05 07:37:42;;;;;;;5.33;3.17;;;;;;;0.80;91.29;95848.13;1792655;80;21617;-89
2021/01/05 07:40:14;;;;;;;7.75;3.77;;;;;;;0.84;91.25;95853.66;1792402;80;21479;-89
2021/01/05 07:42:41;;;;;;;10.30;4.33;;;;;;;0.88;91.29;95848.27;1792572;80;21088;-89
2021/01/05 07:45:18;;;;;;;17.35;6.30;;;;;;;0.90;91.22;95847.52;1792334;79;21158;-89
2021/01/05 07:47:46;;;;;;;12.35;4.90;;;;;;;0.94;91.23;95839.48;1801998;79;21142;-88
2021/01/05 07:50:21;;;;;;;7.65;4.55;;;;;;;0.95;91.21;95841.06;1770809;81;21540;-89
2021/01/05 07:52:50;;;;;;;11.40;4.95;;;;;;;0.96;91.15;95841.85;1803950;79;21378;-88
2021/01/05 07:55:22;;;;;;;18.90;9.03;;;;;;;0.98;91.15;95844.50;1787701;80;21322;-89
2021/01/05 07:57:52;;;;;;;21.73;8.65;;;;;;;0.99;91.11;95847.93;1787707;80;21635;-89
2021/01/05 08:00:26;;;;;;;16.97;8.05;;;;;;;0.98;91.11;95842.41;1787737;80;21692;-89
2021/01/05 08:02:56;;;;;;;16.27;7.62;;;;;;;0.98;91.09;95842.41;1787863;80;21635;-89
2021/01/05 08:05:27;;;;;;;10.23;4.70;;;;;;;1.00;91.06;95845.08;1787745;80;21174;-89
2021/01/05 08:07:56;;;;;;;19.98;7.00;;;;;;;1.01;91.19;95844.05;1787669;80;21143;-89
2021/01/05 08:10:28;;;;;;;91.42;28.10;;;;;;;1.00;91.12;95842.47;1787614;80;21128;-89
2021/01/05 08:12:57;;;;;;;112.47;34.10;;;;;;;0.99;91.10;95839.59;1787613;80;21147;-89
2021/01/05 08:15:29;;;;;;;57.80;22.40;;;;;;;0.98;91.14;95836.67;1787600;80;21152;-88
2021/01/05 08:17:57;;;;;;;52.67;20.48;;;;;;;0.99;91.18;95840.89;1787789;80;21622;-88
2021/01/05 08:20:28;;;;;;;62.73;24.65;;;;;;;0.98;91.19;95843.71;1787117;80;21131;-88
2021/01/05 08:22:57;;;;;;;59.18;24.30;;;;;;;1.02;91.23;95842.23;1787888;80;21606;-88
2021/01/05 08:25:25;;;;;;;44.42;19.98;;;;;;;1.01;91.21;95840.14;1787605;80;21150;-89
2021/01/05 08:27:54;;;;;;;20.12;10.68;;;;;;;1.02;91.18;95839.11;1787770;80;21658;-89
2021/01/05 08:30:32;;;;;;;17.10;9.00;;;;;;;1.05;91.20;95843.06;1787677;80;21164;-89
2021/01/05 08:33:05;;;;;;;7.72;5.12;;;;;;;1.04;91.14;95840.96;1787502;80;21278;-88
2021/01/05 08:35:33;;;;;;;7.67;4.72;;;;;;;1.04;91.13;95837.05;1786962;80;21139;-88
2021/01/05 08:38:02;;;;;;;13.38;8.43;;;;;;;1.05;91.22;95837.84;1787629;80;21696;-88
2021/01/05 08:40:35;;;;;;;13.43;7.85;;;;;;;1.02;91.16;95840.41;1787747;80;21626;-88
2021/01/05 08:43:12;;;;;;;7.75;4.60;;;;;;;1.00;91.22;95838.56;1787743;80;21227;-89
2021/01/05 08:45:45;;;;;;;6.50;4.08;;;;;;;1.03;91.21;95839.37;1787610;80;21309;-88
2021/01/05 08:48:13;;;;;;;7.60;4.33;;;;;;;1.05;91.26;95834.71;1787617;80;21274;-89
2021/01/05 08:50:43;;;;;;;8.18;4.92;;;;;;;1.06;91.22;95832.37;1787080;80;21144;-88
2021/01/05 08:53:18;;;;;;;6.97;3.83;;;;;;;1.06;91.22;95836.30;1787664;80;21120;-89
2021/01/05 08:55:48;;;;;;;6.50;3.33;;;;;;;1.09;91.26;95831.11;1787800;80;21641;-89
2021/01/05 08:58:18;;;;;;;4.90;3.63;;;;;;;1.10;91.31;95829.56;1788013;80;21480;-89
2021/01/05 09:00:47;;;;;;;9.03;4.08;;;;;;;1.13;91.23;95829.63;1787673;80;21147;-89
2021/01/05 09:03:14;;;;;;;7.30;3.98;;;;;;;1.21;91.22;95832.34;1787843;80;21148;-89
2021/01/05 09:05:50;;;;;;;6.83;4.17;;;;;;;1.23;91.15;95825.84;1787568;80;21175;-89
2021/01/05 09:08:31;;;;;;;;;;;;;;;;;;;;;
2021/01/05 09:11:25;;;;;;;8.13;4.95;;;;;;;1.29;91.08;95824.13;1818142;79;24298;-88
2021/01/05 09:13:57;;;;;;;6.37;4.10;;;;;;;1.27;91.07;95824.36;1791813;80;21123;-88
2021/01/05 09:16:31;;;;;;;11.45;6.37;;;;;;;1.29;91.03;95824.91;1791675;80;21486;-88
2021/01/05 09:19:05;;;;;;;11.60;6.72;;;;;;;1.32;91.05;95817.11;1771969;80;21486;-88
2021/01/05 09:21:34;;;;;;;6.25;4.53;;;;;;;1.32;90.95;95824.42;1747479;82;21184;-88
2021/01/05 09:24:02;;;;;;;7.70;4.08;;;;;;;1.32;90.93;95826.25;1752298;82;21187;-88
2021/01/05 09:26:38;;;;;;;8.53;5.92;;;;;;;1.30;90.97;95813.95;1752209;82;21536;-88
2021/01/05 09:29:09;;;;;;;8.65;4.70;;;;;;;1.30;90.94;95815.25;1752193;81;21163;-88
2021/01/05 09:31:48;;;;;;;6.50;3.17;;;;;;;1.29;90.92;95819.69;1752626;81;21148;-88
2021/01/05 09:34:19;;;;;;;12.82;5.28;;;;;;;1.32;90.97;95818.41;1752331;82;21124;-88
2021/01/05 09:36:59;;;;;;;;;;;;;;;1.36;90.99;95811.16;1754855;82;21124;-88
2021/01/05 09:39:32;;;;;;;9.08;4.30;;;;;;;1.34;90.91;95812.44;1752508;81;20128;-88
2021/01/05 09:42:03;;;;;;;9.03;4.37;;;;;;;1.34;90.96;95806.70;1752219;81;21519;-89
2021/01/05 09:44:40;;;;;;;6.60;4.25;;;;;;;1.38;90.96;95808.31;1752250;82;21277;-88
2021/01/05 09:47:18;;;;;;;13.78;7.50;;;;;;;1.42;91.00;95806.30;1723871;82;21156;-88
2021/01/05 09:49:49;;;;;;;34.33;16.40;;;;;;;1.51;91.06;95803.27;1752006;81;21536;-88
2021/01/05 09:52:24;;;;;;;38.33;19.48;;;;;;;1.57;91.00;95801.02;1752189;82;21144;-88
2021/01/05 09:54:55;;;;;;;25.12;13.68;;;;;;;1.64;90.99;95799.00;1752214;82;21140;-88
2021/01/05 09:57:24;;;;;;;10.88;7.08;;;;;;;1.69;90.88;95796.45;1752229;81;21179;-88
2021/01/05 09:59:53;;;;;;;14.55;7.72;;;;;;;1.70;90.77;95796.23;1752412;81;21500;-88
2021/01/05 10:02:27;;;;;;;17.30;8.63;;;;;;;1.72;90.74;95790.25;1752291;81;21310;-88
2021/01/05 10:04:54;;;;;;;12.37;6.65;;;;;;;1.82;90.76;95789.56;1752289;81;21119;-88
2021/01/05 10:07:27;;;;;;;21.20;11.53;;;;;;;1.93;90.71;95789.17;1752211;82;21501;-88
2021/01/05 10:10:03;;;;;;;20.27;10.18;;;;;;;2.01;90.65;95788.77;1754447;81;21147;-88
2021/01/05 10:12:31;;;;;;;11.50;6.65;;;;;;;2.07;90.55;95785.16;1757836;82;21622;-88
2021/01/05 10:14:59;;;;;;;9.93;6.05;;;;;;;2.07;90.34;95790.39;1757907;82;21155;-88
2021/01/05 10:17:27;;;;;;;11.93;6.85;;;;;;;2.10;90.21;95787.28;1757914;82;21139;-88
2021/01/05 10:19:54;;;;;;;8.03;5.70;;;;;;;2.07;90.11;95789.08;1757581;81;21297;-88
2021/01/05 10:22:22;;;;;;;9.73;5.30;;;;;;;2.02;89.92;95789.03;1757211;81;21163;-88
2021/01/05 10:24:49;;;;;;;12.35;5.95;;;;;;;1.91;89.77;95790.73;1757258;82;21163;-88
2021/01/05 10:27:16;;;;;;;10.80;6.20;;;;;;;1.87;89.89;95788.34;1757242;81;21146;-88
2021/01/05 10:29:44;;;;;;;8.60;6.15;;;;;;;1.91;89.98;95789.94;1757438;81;21156;-88
2021/01/05 10:32:11;;;;;;;9.15;5.10;;;;;;;1.88;89.95;95789.13;1757286;82;21139;-88
2021/01/05 10:34:38;;;;;;;9.15;4.80;;;;;;;1.77;89.83;95786.89;1757286;82;21514;-89
2021/01/05 10:37:05;;;;;;;8.18;5.62;;;;;;;1.74;89.89;95788.17;1757349;82;21282;-88
2021/01/05 10:39:32;;;;;;;14.65;6.15;;;;;;;1.73;89.92;95789.73;1757362;81;21659;-87
2021/01/05 10:42:04;;;;;;;8.48;5.12;;;;;;;1.71;89.96;95792.59;1757236;82;21163;-88
2021/01/05 10:44:32;;;;;;;8.35;4.80;;;;;;;1.71;90.04;95791.80;1757331;82;21527;-88
2021/01/05 10:47:02;;;;;;;6.72;4.28;;;;;;;1.72;90.00;95784.23;1757247;81;21139;-88
2021/01/05 10:49:29;;;;;;;;;;;;;;;1.68;89.97;95779.20;1759712;81;21196;-88
2021/01/05 10:52:00;;;;;;;9.88;4.78;;;;;;;1.62;90.11;95777.56;1757405;81;20212;-88
2021/01/05 10:54:29;;;;;;;9.88;5.65;;;;;;;1.56;90.10;95777.23;1757495;82;21274;-88
2021/01/05 10:57:04;;;;;;;12.82;6.90;;;;;;;1.52;90.15;95778.20;1757317;82;21539;-88
2021/01/05 10:59:33;;;;;;;17.45;8.53;;;;;;;1.47;90.26;95775.02;1757674;81;21224;-88
2021/01/05 11:02:03;;;;;;;13.03;7.97;;;;;;;1.48;90.49;95766.67;1757159;82;21120;-88
2021/01/05 11:04:32;;;;;;;15.78;8.50;;;;;;;1.46;90.57;95772.66;1757261;81;21526;-88
2021/01/05 11:07:04;;;;;;;16.75;8.05;;;;;;;1.44;90.50;95772.11;1757142;81;21148;-88
2021/01/05 11:09:32;;;;;;;17.35;8.65;;;;;;;1.43;90.65;95761.39;1757111;81;21511;-88
2021/01/05 11:12:06;;;;;;;10.40;5.97;;;;;;;1.44;90.74;95761.66;1757202;81;21104;-88
2021/01/05 11:14:34;;;;;;;10.63;6.40;;;;;;;1.41;90.66;95762.94;1757488;82;21127;-88
2021/01/05 11:17:02;;;;;;;7.60;4.55;;;;;;;1.44;90.87;95759.05;1757096;81;21149;-88
2021/01/05 11:19:29;;;;;;;5.72;3.72;;;;;;;1.51;90.92;95764.88;1756946;81;21160;-88
2021/01/05 11:22:02;;;;;;;6.15;4.25;;;;;;;1.54;90.89;95767.52;1757155;82;21132;-88
2021/01/05 11:24:31;;;;;;;5.92;3.70;;;;;;;1.56;90.93;95761.05;1757234;82;21116;-88
2021/01/05 11:26:58;;;;;;;8.25;3.80;;;;;;;1.56;90.84;95769.40;1757140;82;21152;-88
2021/01/05 11:29:27;;;;;;;4.92;3.47;;;;;;;1.55;90.87;95765.17;1757228;81;21469;-88
2021/01/05 11:32:09;;;;;;;5.75;3.98;;;;;;;1.50;90.89;95768.52;1757165;82;21165;-88
2021/01/05 11:34:38;;;;;;;7.55;4.17;;;;;;;1.51;90.92;95772.71;1757148;82;21147;-89
2021/01/05 11:37:14;;;;;;;6.72;4.92;;;;;;;1.56;91.00;95766.78;1757132;81;21152;-88
2021/01/05 11:39:46;;;;;;;6.62;4.42;;;;;;;1.59;90.89;95771.00;1756219;81;21143;-89
2021/01/05 11:42:14;;;;;;;11.12;6.47;;;;;;;1.62;91.00;95769.20;1757110;82;21155;-89
2021/01/05 11:44:44;;;;;;;10.13;5.62;;;;;;;1.58;90.92;95766.81;1757289;81;21507;-88
2021/01/05 11:47:15;;;;;;;5.87;4.23;;;;;;;1.65;91.05;95771.84;1757356;82;21163;-88
2021/01/05 11:49:42;;;;;;;7.50;4.60;;;;;;;1.69;91.00;95768.53;1756836;81;21426;-89
2021/01/05 11:52:09;;;;;;;9.13;4.70;;;;;;;1.70;90.97;95773.23;1757140;82;21151;-88
2021/01/05 11:54:36;;;;;;;9.83;5.12;;;;;;;1.70;90.98;95772.72;1757263;82;21112;-89
2021/01/05 11:57:04;;;;;;;10.18;6.25;;;;;;;1.65;90.76;95773.16;1757086;82;21171;-88
2021/01/05 11:59:31;;;;;;;10.15;5.95;;;;;;;1.58;90.87;95776.47;1757167;81;21159;-89
2021/01/05 12:02:00;;;;;;;9.15;5.08;;;;;;;1.54;90.90;95781.36;1757164;82;21507;-88
2021/01/05 12:04:30;;;;;;;6.45;4.53;;;;;;;1.52;90.89;95783.44;1757561;82;21298;-89
2021/01/05 12:06:58;;;;;;;7.37;5.22;;;;;;;1.52;91.00;95784.73;1757060;82;21158;-88
2021/01/05 12:09:28;;;;;;;8.93;5.70;;;;;;;1.51;91.09;95778.45;1757379;81;21310;-89